createdAt,value
2018-09-22T00:02:18.700Z,101449.17
2018-09-22T00:05:43.192Z,101464.14
2018-09-22T00:09:10.542Z,101472.40
2018-09-22T00:12:34.955Z,101478.63
2018-09-22T00:15:59.406Z,101501.51
2018-09-22T00:19:24.016Z,101523.97
2018-09-22T00:22:48.432Z,101521.84
2018-09-22T00:26:12.863Z,101540.34
2018-09-22T00:29:37.280Z,101533.75
2018-09-22T00:33:01.711Z,101519.77
2018-09-22T00:36:26.128Z,101519.84
2018-09-22T00:39:50.525Z,101527.19
2018-09-22T00:43:15.120Z,101527.83
2018-09-22T00:46:39.652Z,101532.59
2018-09-22T00:50:05.156Z,101535.63
2018-09-22T00:53:29.551Z,101532.01
2018-09-22T00:56:53.952Z,101528.72
2018-09-22T01:00:18.415Z,101536.88
2018-09-22T01:03:42.900Z,101541.59
2018-09-22T01:07:07.358Z,101534.50
2018-09-22T01:10:32.174Z,101543.32
2018-09-22T01:13:56.601Z,101548.73
2018-09-22T01:17:21.016Z,101561.09
2018-09-22T01:20:45.520Z,101567.86
2018-09-22T01:24:10.002Z,101564.70
2018-09-22T01:27:34.432Z,101579.88
2018-09-22T01:30:58.880Z,101575.71
2018-09-22T01:34:23.267Z,101584.03
2018-09-22T01:37:47.721Z,101588.39
2018-09-22T01:41:12.237Z,101587.04
2018-09-22T01:44:36.858Z,101599.39
2018-09-22T01:48:01.377Z,101594.38
2018-09-22T01:51:25.846Z,101588.39
2018-09-22T01:54:50.256Z,101585.02
2018-09-22T01:58:14.696Z,101598.70
2018-09-22T02:01:39.172Z,101595.44
2018-09-22T02:05:03.718Z,101601.72
2018-09-22T02:08:28.187Z,101599.87
2018-09-22T02:11:52.647Z,101603.84
2018-09-22T02:15:17.085Z,101606.83
2018-09-22T02:18:41.510Z,101608.38
2018-09-22T02:22:05.961Z,101610.78
2018-09-22T02:25:30.406Z,101617.13
2018-09-22T02:28:54.807Z,101621.34
2018-09-22T02:32:19.266Z,101621.30
2018-09-22T02:35:43.746Z,101626.16
2018-09-22T02:39:10.279Z,101626.37
2018-09-22T02:42:34.782Z,101622.78
2018-09-22T02:45:59.204Z,101619.20
2018-09-22T02:49:23.609Z,101628.88
2018-09-22T02:52:47.996Z,101628.22
2018-09-22T02:56:12.405Z,101630.98
2018-09-22T02:59:36.830Z,101635.08
2018-09-22T03:03:01.250Z,101639.12
2018-09-22T03:06:25.652Z,101642.04
2018-09-22T03:09:50.025Z,101638.91
2018-09-22T03:13:14.453Z,101637.95
2018-09-22T03:16:39.166Z,101638.92
2018-09-22T03:20:03.564Z,101654.59
2018-09-22T03:23:27.969Z,101644.42
2018-09-22T03:26:53.640Z,101648.97
2018-09-22T03:30:18.050Z,101659.92
2018-09-22T03:33:42.494Z,101650.70
2018-09-22T03:37:07.005Z,101663.48
2018-09-22T03:40:31.420Z,101668.69
2018-09-22T03:43:56.080Z,101665.80
2018-09-22T03:47:20.506Z,101669.55
2018-09-22T03:50:44.919Z,101664.72
2018-09-22T03:54:09.371Z,101656.42
2018-09-22T03:57:33.918Z,101657.01
2018-09-22T04:00:58.299Z,101664.52
2018-09-22T04:04:22.793Z,101662.99
2018-09-22T04:07:47.184Z,101674.80
2018-09-22T04:11:11.596Z,101678.80
2018-09-22T04:14:36.018Z,101684.81
2018-09-22T04:18:00.473Z,101682.27
2018-09-22T04:21:25.020Z,101686.95
2018-09-22T04:24:49.447Z,101685.90
2018-09-22T04:28:13.924Z,101699.73
2018-09-22T04:31:38.379Z,101703.30
2018-09-22T04:35:02.827Z,101696.25
2018-09-22T04:38:27.246Z,101703.51
2018-09-22T04:41:51.695Z,101699.33
2018-09-22T04:45:16.155Z,101705.72
2018-09-22T04:48:40.684Z,101702.52
2018-09-22T04:52:05.127Z,101707.07
2018-09-22T04:55:29.764Z,101721.70
2018-09-22T04:58:54.438Z,101722.65
2018-09-22T05:02:18.890Z,101705.53
2018-09-22T05:05:43.278Z,101711.44
2018-09-22T05:09:11.446Z,101725.67
2018-09-22T05:12:35.886Z,101728.86
2018-09-22T05:16:00.313Z,101730.39
2018-09-22T05:19:24.810Z,101733.66
2018-09-22T05:22:49.219Z,101746.75
2018-09-22T05:26:13.635Z,101743.55
2018-09-22T05:29:38.186Z,101762.80
2018-09-22T05:33:02.631Z,101756.80
2018-09-22T05:36:27.073Z,101773.15
2018-09-22T05:39:51.480Z,101767.55
2018-09-22T05:43:15.907Z,101761.07
2018-09-22T05:46:40.406Z,101751.47
2018-09-22T05:50:04.910Z,101756.80
2018-09-22T05:53:29.307Z,101759.88
2018-09-22T05:56:53.765Z,101770.52
2018-09-22T06:00:18.199Z,101766.47
2018-09-22T06:03:42.669Z,101765.86
2018-09-22T06:07:07.332Z,101754.39
2018-09-22T06:10:31.816Z,101763.38
2018-09-22T06:13:56.252Z,101769.51
2018-09-22T06:17:20.682Z,101765.13
2018-09-22T06:20:45.073Z,101761.94
2018-09-22T06:24:09.592Z,101755.26
2018-09-22T06:27:34.027Z,101752.36
2018-09-22T06:30:58.443Z,101758.34
2018-09-22T06:34:22.871Z,101759.02
2018-09-22T06:37:47.335Z,101769.41
2018-09-22T06:41:11.750Z,101756.95
2018-09-22T06:44:36.189Z,101788.99
2018-09-22T06:48:00.606Z,101781.45
2018-09-22T06:51:25.069Z,101775.38
2018-09-22T06:54:49.552Z,101770.64
2018-09-22T06:58:13.953Z,101765.63
2018-09-22T07:01:38.361Z,101777.07
2018-09-22T07:05:02.756Z,101778.02
2018-09-22T07:08:27.156Z,101774.02
2018-09-22T07:11:51.563Z,101772.97
2018-09-22T07:15:16.672Z,101772.77
2018-09-22T07:18:41.330Z,101779.28
2018-09-22T07:22:10.940Z,101796.80
2018-09-22T07:25:35.511Z,101787.86
2018-09-22T07:29:00.078Z,101790.13
2018-09-22T07:32:24.526Z,101827.22
2018-09-22T07:35:49.038Z,101813.02
2018-09-22T07:39:13.688Z,101818.21
2018-09-22T07:42:38.097Z,101807.86
2018-09-22T07:46:02.554Z,101806.37
2018-09-22T07:49:26.994Z,101800.70
2018-09-22T07:52:51.470Z,101795.54
2018-09-22T07:56:15.943Z,101792.36
2018-09-22T07:59:40.392Z,101805.82
2018-09-22T08:03:04.857Z,101808.09
2018-09-22T08:06:29.287Z,101831.97
2018-09-22T08:09:53.706Z,101833.14
2018-09-22T08:13:18.157Z,101828.91
2018-09-22T08:16:42.589Z,101826.56
2018-09-22T08:20:07.596Z,101822.31
2018-09-22T08:23:31.979Z,101814.11
2018-09-22T08:26:56.431Z,101820.27
2018-09-22T08:30:20.850Z,101819.64
2018-09-22T08:33:45.256Z,101821.83
2018-09-22T08:37:09.858Z,101813.56
2018-09-22T08:40:34.142Z,101814.55
2018-09-22T08:43:58.591Z,101826.37
2018-09-22T08:47:23.082Z,101822.29
2018-09-22T08:50:47.512Z,101821.16
2018-09-22T08:54:11.900Z,101810.42
2018-09-22T08:57:36.309Z,101793.58
2018-09-22T09:01:00.776Z,101802.31
2018-09-22T09:04:25.151Z,101806.77
2018-09-22T09:07:49.601Z,101801.88
2018-09-22T09:11:14.037Z,101827.17
2018-09-22T09:14:38.529Z,101835.27
2018-09-22T09:18:02.906Z,101824.05
2018-09-22T09:21:27.374Z,101825.66
2018-09-22T09:24:51.935Z,101822.35
2018-09-22T09:28:16.382Z,101815.69
2018-09-22T09:31:40.839Z,101788.95
2018-09-22T09:35:05.349Z,101796.39
2018-09-22T09:38:30.987Z,101794.14
2018-09-22T09:41:55.408Z,101784.76
2018-09-22T09:45:19.822Z,101764.36
2018-09-22T09:48:44.257Z,101769.65
2018-09-22T09:52:09.283Z,101775.38
2018-09-22T09:55:33.684Z,101783.00
2018-09-22T09:58:58.138Z,101774.64
2018-09-22T10:02:24.922Z,101769.55
2018-09-22T10:05:49.640Z,101770.08
2018-09-22T10:09:14.104Z,101757.22
2018-09-22T10:12:38.649Z,101737.06
2018-09-22T10:16:03.146Z,101747.28
2018-09-22T10:19:27.939Z,101745.92
2018-09-22T10:22:52.652Z,101743.38
2018-09-22T10:26:17.288Z,101744.64
2018-09-22T10:29:43.085Z,101738.80
2018-09-22T10:33:07.543Z,101748.75
2018-09-22T10:36:32.457Z,101742.71
2018-09-22T10:39:57.896Z,101738.63
2018-09-22T10:43:23.644Z,101746.06
2018-09-22T10:46:49.310Z,101736.67
2018-09-22T10:50:14.628Z,101730.32
2018-09-22T10:53:39.536Z,101730.34
2018-09-22T10:57:03.925Z,101724.00
2018-09-22T11:00:28.299Z,101734.15
2018-09-22T11:03:52.747Z,101745.41
2018-09-22T11:07:17.171Z,101750.98
2018-09-22T11:10:41.623Z,101728.78
2018-09-22T11:14:06.103Z,101723.31
2018-09-22T11:17:30.558Z,101728.59
2018-09-22T11:20:54.997Z,101743.77
2018-09-22T11:24:20.431Z,101731.72
2018-09-22T11:27:45.701Z,101718.02
2018-09-22T11:31:10.282Z,101724.78
2018-09-22T11:34:35.159Z,101723.62
2018-09-22T11:37:59.961Z,101718.89
2018-09-22T11:41:24.857Z,101718.42
2018-09-22T11:44:49.358Z,101706.83
2018-09-22T11:48:13.778Z,101716.13
2018-09-22T11:51:38.763Z,101711.05
2018-09-22T11:55:03.454Z,101694.31
2018-09-22T11:58:28.376Z,101692.45
2018-09-22T12:01:52.863Z,101688.93
2018-09-22T12:05:17.346Z,101690.67
2018-09-22T12:08:41.812Z,101697.08
2018-09-22T12:12:06.383Z,101697.52
2018-09-22T12:15:30.910Z,101690.07
2018-09-22T12:18:55.404Z,101693.05
2018-09-22T12:22:20.091Z,101700.56
2018-09-22T12:25:44.772Z,101697.94
2018-09-22T12:29:09.314Z,101722.75
2018-09-22T12:32:34.042Z,101717.41
2018-09-22T12:35:59.924Z,101703.31
2018-09-22T12:39:24.605Z,101710.34
2018-09-22T12:42:55.690Z,101726.45
2018-09-22T12:46:22.594Z,101714.08
2018-09-22T12:49:48.489Z,101715.45
2018-09-22T12:53:13.713Z,101709.86
2018-09-22T12:56:38.252Z,101705.76
2018-09-22T13:00:03.300Z,101715.70
2018-09-22T13:03:28.119Z,101708.48
2018-09-22T13:06:52.572Z,101708.41
2018-09-22T13:10:17.116Z,101700.36
2018-09-22T13:13:42.010Z,101698.80
2018-09-22T13:17:06.657Z,101689.98
2018-09-22T13:20:31.120Z,101682.30
2018-09-22T13:23:55.915Z,101687.89
2018-09-22T13:27:20.711Z,101681.70
2018-09-22T13:30:45.220Z,101686.12
2018-09-22T13:34:09.990Z,101680.34
2018-09-22T13:37:34.899Z,101704.05
2018-09-22T13:40:59.863Z,101697.96
2018-09-22T13:44:25.748Z,101724.63
2018-09-22T13:47:50.444Z,101733.34
2018-09-22T13:51:16.476Z,101736.32
2018-09-22T13:54:42.198Z,101735.07
2018-09-22T13:58:07.414Z,101720.86
2018-09-22T14:01:33.010Z,101715.48
2018-09-22T14:04:58.175Z,101695.91
2018-09-22T14:08:23.663Z,101682.82
2018-09-22T14:11:48.240Z,101671.37
2018-09-22T14:15:12.970Z,101675.59
2018-09-22T14:18:38.199Z,101666.48
2018-09-22T14:22:03.441Z,101666.65
2018-09-22T14:25:28.241Z,101670.59
2018-09-22T14:28:54.438Z,101674.42
2018-09-22T14:32:20.501Z,101686.46
2018-09-22T14:35:47.468Z,101694.67
2018-09-22T14:39:13.046Z,101703.73
2018-09-22T14:42:37.571Z,101709.93
2018-09-22T14:46:02.733Z,101699.66
2018-09-22T14:49:28.063Z,101701.37
2018-09-22T14:52:53.920Z,101717.20
2018-09-22T14:56:18.579Z,101705.89
2018-09-22T14:59:43.498Z,101706.31
2018-09-22T15:03:08.196Z,101704.87
2018-09-22T15:06:32.653Z,101702.88
2018-09-22T15:09:57.088Z,101693.75
2018-09-22T15:13:21.626Z,101694.30
2018-09-22T15:16:46.077Z,101698.23
2018-09-22T15:20:10.555Z,101691.60
2018-09-22T15:23:35.105Z,101691.90
2018-09-22T15:26:59.655Z,101689.80
2018-09-22T15:30:24.173Z,101695.14
2018-09-22T15:33:48.568Z,101695.52
2018-09-22T15:37:12.980Z,101708.80
2018-09-22T15:40:37.477Z,101699.78
2018-09-22T15:44:02.047Z,101695.78
2018-09-22T15:47:26.513Z,101699.17
2018-09-22T15:50:50.953Z,101707.02
2018-09-22T15:54:15.379Z,101710.74
2018-09-22T15:57:39.797Z,101717.63
2018-09-22T16:01:04.216Z,101723.91
2018-09-22T16:04:29.744Z,101711.25
2018-09-22T16:07:54.235Z,101705.67
2018-09-22T16:11:18.680Z,101705.31
2018-09-22T16:14:43.171Z,101705.78
2018-09-22T16:18:07.631Z,101702.62
2018-09-22T16:21:32.567Z,101692.69
2018-09-22T16:24:57.012Z,101688.20
2018-09-22T16:28:21.439Z,101687.64
2018-09-22T16:31:45.874Z,101681.37
2018-09-22T16:35:10.403Z,101696.45
2018-09-22T16:38:34.805Z,101689.23
2018-09-22T16:42:00.948Z,101688.20
2018-09-22T16:45:25.558Z,101685.34
2018-09-22T16:48:50.506Z,101693.19
2018-09-22T16:52:16.376Z,101683.18
2018-09-22T16:55:41.569Z,101685.78
2018-09-22T16:59:07.708Z,101682.30
2018-09-22T17:02:33.101Z,101696.70
2018-09-22T17:05:58.133Z,101685.21
2018-09-22T17:09:23.303Z,101678.81
2018-09-22T17:12:48.681Z,101682.50
2018-09-22T17:16:14.120Z,101675.56
2018-09-22T17:19:38.703Z,101662.78
2018-09-22T17:23:03.748Z,101673.34
2018-09-22T17:26:28.815Z,101652.82
2018-09-22T17:29:53.658Z,101654.37
2018-09-22T17:33:18.423Z,101654.97
2018-09-22T17:36:43.500Z,101656.22
2018-09-22T17:40:08.270Z,101677.22
2018-09-22T17:43:32.991Z,101689.47
2018-09-22T17:46:58.094Z,101696.84
2018-09-22T17:50:23.085Z,101684.16
2018-09-22T17:53:48.031Z,101681.25
2018-09-22T17:57:13.501Z,101683.09
2018-09-22T18:00:38.998Z,101685.72
2018-09-22T18:04:04.418Z,101680.28
2018-09-22T18:07:30.044Z,101678.16
2018-09-22T18:10:55.598Z,101683.84
2018-09-22T18:14:20.650Z,101685.91
2018-09-22T18:17:45.691Z,101696.14
2018-09-22T18:21:10.519Z,101693.95
2018-09-22T18:24:35.421Z,101705.45
2018-09-22T18:28:00.928Z,101685.63
2018-09-22T18:31:26.459Z,101698.56
2018-09-22T18:34:51.509Z,101702.14
2018-09-22T18:38:17.052Z,101692.30
2018-09-22T18:41:42.489Z,101701.50
2018-09-22T18:45:07.332Z,101695.38
2018-09-22T18:48:32.415Z,101698.09
2018-09-22T18:51:58.142Z,101700.12
2018-09-22T18:55:22.862Z,101701.00
2018-09-22T18:58:47.410Z,101691.83
2018-09-22T19:02:11.868Z,101691.51
2018-09-22T19:05:36.310Z,101687.94
2018-09-22T19:09:00.881Z,101697.42
2018-09-22T19:12:25.415Z,101701.27
2018-09-22T19:15:51.174Z,101685.23
2018-09-22T19:19:20.480Z,101669.18
2018-09-22T19:22:48.049Z,101676.63
2018-09-22T19:26:20.927Z,101669.38
2018-09-22T19:29:54.920Z,101665.69
2018-09-22T19:33:51.689Z,101685.42
2018-09-22T19:37:25.109Z,101677.61
2018-09-22T19:41:57.598Z,101683.51
2018-09-22T19:45:39.645Z,101684.36
2018-09-22T19:49:17.377Z,101671.41
2018-09-22T19:52:47.635Z,101680.10
2018-09-22T19:56:12.215Z,101684.85
2018-09-22T19:59:36.676Z,101676.91
2018-09-22T20:03:01.164Z,101671.88
2018-09-22T20:06:25.629Z,101659.31
2018-09-22T20:09:50.149Z,101674.52
2018-09-22T20:13:14.653Z,101667.63
2018-09-22T20:16:39.176Z,101662.14
2018-09-22T20:20:03.846Z,101668.60
2018-09-22T20:23:28.397Z,101668.41
2018-09-22T20:26:53.020Z,101656.14
2018-09-22T20:30:17.661Z,101665.23
2018-09-22T20:33:42.148Z,101663.97
2018-09-22T20:37:06.700Z,101662.42
2018-09-22T20:40:31.504Z,101645.41
2018-09-22T20:43:56.021Z,101648.11
2018-09-22T20:47:20.841Z,101657.39
2018-09-22T20:50:45.438Z,101641.62
2018-09-22T20:54:09.917Z,101626.85
2018-09-22T20:57:35.770Z,101633.70
2018-09-22T21:01:02.019Z,101628.59
2018-09-22T21:04:27.628Z,101625.30
2018-09-22T21:07:52.564Z,101623.16
2018-09-22T21:11:17.232Z,101622.00
2018-09-22T21:14:43.757Z,101612.93
2018-09-22T21:18:09.301Z,101610.62
2018-09-22T21:21:35.510Z,101611.00
2018-09-22T21:25:00.747Z,101612.34
2018-09-22T21:28:25.917Z,101617.86
2018-09-22T21:31:50.333Z,101613.97
2018-09-22T21:35:14.830Z,101601.83
2018-09-22T21:38:40.043Z,101602.97
2018-09-22T21:42:05.764Z,101602.20
2018-09-22T21:45:30.618Z,101590.31
2018-09-22T21:48:56.083Z,101591.68
2018-09-22T21:52:22.205Z,101597.48
2018-09-22T21:55:47.564Z,101583.73
2018-09-22T21:59:13.491Z,101581.62
2018-09-22T22:02:38.408Z,101579.19
2018-09-22T22:06:03.200Z,101567.61
2018-09-22T22:09:27.956Z,101565.69
2018-09-22T22:12:52.646Z,101565.20
2018-09-22T22:16:17.174Z,101559.89
2018-09-22T22:19:41.699Z,101558.53
2018-09-22T22:23:08.680Z,101562.67
2018-09-22T22:26:34.369Z,101567.51
2018-09-22T22:29:59.492Z,101558.53
2018-09-22T22:33:24.462Z,101557.23
2018-09-22T22:36:50.450Z,101550.52
2018-09-22T22:40:14.908Z,101544.99
2018-09-22T22:43:39.431Z,101537.64
2018-09-22T22:47:03.933Z,101534.66
2018-09-22T22:50:28.515Z,101524.70
2018-09-22T22:53:53.094Z,101517.83
2018-09-22T22:57:17.668Z,101538.02
2018-09-22T23:00:42.231Z,101537.74
2018-09-22T23:04:06.972Z,101525.98
2018-09-22T23:07:31.448Z,101526.33
2018-09-22T23:10:55.957Z,101510.95
2018-09-22T23:14:20.373Z,101492.45
2018-09-22T23:17:44.862Z,101477.45
2018-09-22T23:21:09.474Z,101476.70
2018-09-22T23:24:33.900Z,101480.16
2018-09-22T23:27:58.351Z,101487.97
2018-09-22T23:31:22.857Z,101478.91
2018-09-22T23:34:47.272Z,101481.62
2018-09-22T23:38:11.712Z,101478.80
2018-09-22T23:41:36.157Z,101478.42
2018-09-22T23:45:00.660Z,101467.98
2018-09-22T23:48:25.093Z,101456.09
2018-09-22T23:51:49.528Z,101454.63
2018-09-22T23:55:14.015Z,101450.50
2018-09-22T23:58:38.573Z,101435.12
